sensor_id;sensor_type;location;lat;lon;timestamp;temperature;humidity
21184;DHT22;18176;49.502;11.754;2022-07-10T00:01:10;15.60;99.90
21184;DHT22;18176;49.502;11.754;2022-07-10T00:05:09;15.70;99.90
21184;DHT22;18176;49.502;11.754;2022-07-10T00:09:15;15.60;99.90
21184;DHT22;18176;49.502;11.754;2022-07-10T00:13:12;15.60;99.90
21184;DHT22;18176;49.502;11.754;2022-07-10T00:17:09;15.40;99.90
21184;DHT22;18176;49.502;11.754;2022-07-10T00:21:07;15.30;99.90
21184;DHT22;18176;49.502;11.754;2022-07-10T00:25:05;15.20;99.90
21184;DHT22;18176;49.502;11.754;2022-07-10T00:29:03;15.10;99.90
21184;DHT22;18176;49.502;11.754;2022-07-10T00:33:00;14.90;99.90
21184;DHT22;18176;49.502;11.754;2022-07-10T00:36:57;14.90;99.90
21184;DHT22;18176;49.502;11.754;2022-07-10T00:40:54;14.70;99.90
21184;DHT22;18176;49.502;11.754;2022-07-10T00:44:51;14.70;99.90
21184;DHT22;18176;49.502;11.754;2022-07-10T00:48:48;14.60;99.90
21184;DHT22;18176;49.502;11.754;2022-07-10T00:52:46;14.60;99.90
21184;DHT22;18176;49.502;11.754;2022-07-10T00:56:43;14.40;99.90
21184;DHT22;18176;49.502;11.754;2022-07-10T01:00:40;14.40;99.90
21184;DHT22;18176;49.502;11.754;2022-07-10T01:04:38;14.30;99.90
21184;DHT22;18176;49.502;11.754;2022-07-10T01:08:36;14.20;99.90
21184;DHT22;18176;49.502;11.754;2022-07-10T01:12:33;14.10;99.90
21184;DHT22;18176;49.502;11.754;2022-07-10T01:16:31;14.00;99.90
21184;DHT22;18176;49.502;11.754;2022-07-10T01:20:32;13.90;99.90
21184;DHT22;18176;49.502;11.754;2022-07-10T01:24:29;13.90;99.90
21184;DHT22;18176;49.502;11.754;2022-07-10T01:28:26;13.80;99.90
21184;DHT22;18176;49.502;11.754;2022-07-10T01:32:24;13.80;99.90
21184;DHT22;18176;49.502;11.754;2022-07-10T01:36:22;13.70;99.90
21184;DHT22;18176;49.502;11.754;2022-07-10T01:40:19;13.70;99.90
21184;DHT22;18176;49.502;11.754;2022-07-10T01:44:17;13.70;99.90
21184;DHT22;18176;49.502;11.754;2022-07-10T01:48:14;13.80;99.90
21184;DHT22;18176;49.502;11.754;2022-07-10T01:52:11;13.90;99.90
21184;DHT22;18176;49.502;11.754;2022-07-10T01:56:11;14.10;99.90
21184;DHT22;18176;49.502;11.754;2022-07-10T02:00:10;14.30;99.90
21184;DHT22;18176;49.502;11.754;2022-07-10T02:04:11;14.40;99.90
21184;DHT22;18176;49.502;11.754;2022-07-10T02:08:27;14.50;99.90
21184;DHT22;18176;49.502;11.754;2022-07-10T02:12:24;14.60;99.90
21184;DHT22;18176;49.502;11.754;2022-07-10T02:16:21;14.70;99.90
21184;DHT22;18176;49.502;11.754;2022-07-10T02:20:18;14.70;99.90
21184;DHT22;18176;49.502;11.754;2022-07-10T02:24:15;14.70;99.90
21184;DHT22;18176;49.502;11.754;2022-07-10T02:28:12;14.70;99.90
21184;DHT22;18176;49.502;11.754;2022-07-10T02:32:09;14.80;99.90
21184;DHT22;18176;49.502;11.754;2022-07-10T02:36:07;14.80;99.90
21184;DHT22;18176;49.502;11.754;2022-07-10T02:40:04;14.80;99.90
21184;DHT22;18176;49.502;11.754;2022-07-10T02:44:02;14.80;99.90
21184;DHT22;18176;49.502;11.754;2022-07-10T02:48:00;14.80;99.90
21184;DHT22;18176;49.502;11.754;2022-07-10T02:51:59;14.90;99.90
21184;DHT22;18176;49.502;11.754;2022-07-10T02:55:56;14.80;99.90
21184;DHT22;18176;49.502;11.754;2022-07-10T02:59:54;14.90;99.90
21184;DHT22;18176;49.502;11.754;2022-07-10T03:03:51;14.80;99.90
21184;DHT22;18176;49.502;11.754;2022-07-10T03:07:48;14.80;99.90
21184;DHT22;18176;49.502;11.754;2022-07-10T03:11:45;14.70;99.90
21184;DHT22;18176;49.502;11.754;2022-07-10T03:15:44;14.70;99.90
21184;DHT22;18176;49.502;11.754;2022-07-10T03:19:41;14.70;99.90
21184;DHT22;18176;49.502;11.754;2022-07-10T03:23:38;14.70;99.90
21184;DHT22;18176;49.502;11.754;2022-07-10T03:27:36;14.70;99.90
21184;DHT22;18176;49.502;11.754;2022-07-10T03:31:36;14.70;99.90
21184;DHT22;18176;49.502;11.754;2022-07-10T03:35:33;14.70;99.90
21184;DHT22;18176;49.502;11.754;2022-07-10T03:39:30;14.60;99.90
21184;DHT22;18176;49.502;11.754;2022-07-10T03:43:27;14.60;99.90
21184;DHT22;18176;49.502;11.754;2022-07-10T03:47:24;14.60;99.90
21184;DHT22;18176;49.502;11.754;2022-07-10T03:51:21;14.50;99.90
21184;DHT22;18176;49.502;11.754;2022-07-10T03:55:18;14.40;99.90
21184;DHT22;18176;49.502;11.754;2022-07-10T03:59:15;14.30;99.90
21184;DHT22;18176;49.502;11.754;2022-07-10T04:03:13;14.30;99.90
21184;DHT22;18176;49.502;11.754;2022-07-10T04:07:10;14.20;99.90
21184;DHT22;18176;49.502;11.754;2022-07-10T04:11:09;14.30;99.90
21184;DHT22;18176;49.502;11.754;2022-07-10T04:15:06;14.30;99.90
21184;DHT22;18176;49.502;11.754;2022-07-10T04:19:04;14.40;99.90
21184;DHT22;18176;49.502;11.754;2022-07-10T04:23:01;14.40;99.90
21184;DHT22;18176;49.502;11.754;2022-07-10T04:26:58;14.40;99.90
21184;DHT22;18176;49.502;11.754;2022-07-10T04:30:55;14.40;99.90
21184;DHT22;18176;49.502;11.754;2022-07-10T04:34:52;14.40;99.90
21184;DHT22;18176;49.502;11.754;2022-07-10T04:38:49;14.40;99.90
21184;DHT22;18176;49.502;11.754;2022-07-10T04:42:46;14.40;99.90
21184;DHT22;18176;49.502;11.754;2022-07-10T04:46:43;14.50;99.90
21184;DHT22;18176;49.502;11.754;2022-07-10T04:50:40;14.50;99.90
21184;DHT22;18176;49.502;11.754;2022-07-10T04:54:37;14.40;99.90
21184;DHT22;18176;49.502;11.754;2022-07-10T04:58:34;14.20;99.90
21184;DHT22;18176;49.502;11.754;2022-07-10T05:02:32;14.10;99.90
21184;DHT22;18176;49.502;11.754;2022-07-10T05:06:30;14.00;99.90
21184;DHT22;18176;49.502;11.754;2022-07-10T05:10:27;13.80;99.90
21184;DHT22;18176;49.502;11.754;2022-07-10T05:14:24;13.80;99.90
21184;DHT22;18176;49.502;11.754;2022-07-10T05:18:22;13.80;99.90
21184;DHT22;18176;49.502;11.754;2022-07-10T05:22:19;13.70;99.90
21184;DHT22;18176;49.502;11.754;2022-07-10T05:26:17;13.70;99.90
21184;DHT22;18176;49.502;11.754;2022-07-10T05:30:14;13.80;99.90
21184;DHT22;18176;49.502;11.754;2022-07-10T05:34:11;14.10;99.90
21184;DHT22;18176;49.502;11.754;2022-07-10T05:38:08;14.60;99.90
21184;DHT22;18176;49.502;11.754;2022-07-10T05:42:05;14.80;99.90
21184;DHT22;18176;49.502;11.754;2022-07-10T05:46:02;14.90;99.90
21184;DHT22;18176;49.502;11.754;2022-07-10T05:50:00;15.00;99.90
21184;DHT22;18176;49.502;11.754;2022-07-10T05:53:57;15.10;99.90
21184;DHT22;18176;49.502;11.754;2022-07-10T05:57:54;15.30;99.90
21184;DHT22;18176;49.502;11.754;2022-07-10T06:01:52;15.50;99.90
21184;DHT22;18176;49.502;11.754;2022-07-10T06:05:49;15.60;99.90
21184;DHT22;18176;49.502;11.754;2022-07-10T06:09:46;15.60;99.90
21184;DHT22;18176;49.502;11.754;2022-07-10T06:13:43;15.60;99.90
21184;DHT22;18176;49.502;11.754;2022-07-10T06:17:40;15.50;99.90
21184;DHT22;18176;49.502;11.754;2022-07-10T06:21:37;15.30;99.90
21184;DHT22;18176;49.502;11.754;2022-07-10T06:25:34;15.00;99.90
21184;DHT22;18176;49.502;11.754;2022-07-10T06:29:31;15.10;99.90
21184;DHT22;18176;49.502;11.754;2022-07-10T06:33:28;15.30;99.90
21184;DHT22;18176;49.502;11.754;2022-07-10T06:37:25;15.40;99.90
21184;DHT22;18176;49.502;11.754;2022-07-10T06:41:23;15.60;99.90
21184;DHT22;18176;49.502;11.754;2022-07-10T06:45:20;15.70;99.90
21184;DHT22;18176;49.502;11.754;2022-07-10T06:49:17;15.60;99.90
21184;DHT22;18176;49.502;11.754;2022-07-10T06:53:14;15.40;99.90
21184;DHT22;18176;49.502;11.754;2022-07-10T06:57:12;15.20;99.90
21184;DHT22;18176;49.502;11.754;2022-07-10T07:01:09;15.30;99.90
21184;DHT22;18176;49.502;11.754;2022-07-10T07:05:07;15.50;99.90
21184;DHT22;18176;49.502;11.754;2022-07-10T07:09:04;15.70;99.90
21184;DHT22;18176;49.502;11.754;2022-07-10T07:13:02;16.10;99.90
21184;DHT22;18176;49.502;11.754;2022-07-10T07:16:59;16.60;99.90
21184;DHT22;18176;49.502;11.754;2022-07-10T07:21:03;17.10;99.90
21184;DHT22;18176;49.502;11.754;2022-07-10T07:25:19;17.10;99.90
21184;DHT22;18176;49.502;11.754;2022-07-10T07:29:17;17.30;99.90
21184;DHT22;18176;49.502;11.754;2022-07-10T07:33:14;17.40;99.90
21184;DHT22;18176;49.502;11.754;2022-07-10T07:37:12;17.40;99.90
21184;DHT22;18176;49.502;11.754;2022-07-10T07:41:09;17.40;99.90
21184;DHT22;18176;49.502;11.754;2022-07-10T07:45:08;17.30;99.90
21184;DHT22;18176;49.502;11.754;2022-07-10T07:49:06;17.60;99.90
21184;DHT22;18176;49.502;11.754;2022-07-10T07:53:04;17.80;99.90
21184;DHT22;18176;49.502;11.754;2022-07-10T07:57:02;17.70;99.90
21184;DHT22;18176;49.502;11.754;2022-07-10T08:00:59;17.60;99.90
21184;DHT22;18176;49.502;11.754;2022-07-10T08:04:56;17.50;99.90
21184;DHT22;18176;49.502;11.754;2022-07-10T08:08:53;17.50;99.90
21184;DHT22;18176;49.502;11.754;2022-07-10T08:12:50;17.60;99.90
21184;DHT22;18176;49.502;11.754;2022-07-10T08:16:47;17.70;99.90
21184;DHT22;18176;49.502;11.754;2022-07-10T08:20:44;17.50;99.90
21184;DHT22;18176;49.502;11.754;2022-07-10T08:24:42;17.80;99.90
21184;DHT22;18176;49.502;11.754;2022-07-10T08:28:39;17.60;99.90
21184;DHT22;18176;49.502;11.754;2022-07-10T08:32:38;17.30;99.90
21184;DHT22;18176;49.502;11.754;2022-07-10T08:36:36;17.20;99.90
21184;DHT22;18176;49.502;11.754;2022-07-10T08:40:40;17.30;99.90
21184;DHT22;18176;49.502;11.754;2022-07-10T08:44:38;17.20;99.90
21184;DHT22;18176;49.502;11.754;2022-07-10T08:48:36;17.10;99.90
21184;DHT22;18176;49.502;11.754;2022-07-10T08:53:24;17.40;99.90
21184;DHT22;18176;49.502;11.754;2022-07-10T08:57:29;17.40;99.90
21184;DHT22;18176;49.502;11.754;2022-07-10T09:01:28;18.10;99.90
21184;DHT22;18176;49.502;11.754;2022-07-10T09:05:26;18.50;99.90
21184;DHT22;18176;49.502;11.754;2022-07-10T09:09:23;18.80;99.90
21184;DHT22;18176;49.502;11.754;2022-07-10T09:13:21;18.40;99.90
21184;DHT22;18176;49.502;11.754;2022-07-10T09:17:20;18.10;99.90
21184;DHT22;18176;49.502;11.754;2022-07-10T09:21:18;18.10;99.90
21184;DHT22;18176;49.502;11.754;2022-07-10T09:25:15;17.80;99.90
21184;DHT22;18176;49.502;11.754;2022-07-10T09:29:12;18.40;99.90
21184;DHT22;18176;49.502;11.754;2022-07-10T09:33:26;18.90;99.90
21184;DHT22;18176;49.502;11.754;2022-07-10T09:37:28;19.00;99.90
21184;DHT22;18176;49.502;11.754;2022-07-10T09:41:28;18.90;99.90
21184;DHT22;18176;49.502;11.754;2022-07-10T09:45:26;18.60;99.90
21184;DHT22;18176;49.502;11.754;2022-07-10T09:49:28;18.80;99.90
21184;DHT22;18176;49.502;11.754;2022-07-10T09:53:27;19.10;99.90
21184;DHT22;18176;49.502;11.754;2022-07-10T09:57:28;19.60;99.80
21184;DHT22;18176;49.502;11.754;2022-07-10T10:01:27;19.90;99.30
21184;DHT22;18176;49.502;11.754;2022-07-10T10:09:38;18.90;98.90
21184;DHT22;18176;49.502;11.754;2022-07-10T10:13:44;18.90;99.10
21184;DHT22;18176;49.502;11.754;2022-07-10T10:17:43;18.50;99.30
21184;DHT22;18176;49.502;11.754;2022-07-10T10:21:43;18.10;99.90
21184;DHT22;18176;49.502;11.754;2022-07-10T10:25:41;18.00;99.90
21184;DHT22;18176;49.502;11.754;2022-07-10T10:29:39;18.10;99.90
21184;DHT22;18176;49.502;11.754;2022-07-10T10:37:40;18.40;99.90
21184;DHT22;18176;49.502;11.754;2022-07-10T10:41:46;18.80;99.90
21184;DHT22;18176;49.502;11.754;2022-07-10T10:45:48;18.90;99.90
21184;DHT22;18176;49.502;11.754;2022-07-10T10:49:55;18.90;99.90
21184;DHT22;18176;49.502;11.754;2022-07-10T10:54:06;19.10;99.90
21184;DHT22;18176;49.502;11.754;2022-07-10T10:58:15;19.00;98.80
21184;DHT22;18176;49.502;11.754;2022-07-10T11:02:31;19.30;98.10
21184;DHT22;18176;49.502;11.754;2022-07-10T11:16:31;19.40;98.30
21184;DHT22;18176;49.502;11.754;2022-07-10T11:20:32;19.30;98.70
21184;DHT22;18176;49.502;11.754;2022-07-10T11:25:48;19.60;98.60
21184;DHT22;18176;49.502;11.754;2022-07-10T11:36:17;20.10;96.00
21184;DHT22;18176;49.502;11.754;2022-07-10T11:41:12;19.60;97.60
21184;DHT22;18176;49.502;11.754;2022-07-10T11:50:50;19.40;98.90
21184;DHT22;18176;49.502;11.754;2022-07-10T12:01:10;20.10;98.20
21184;DHT22;18176;49.502;11.754;2022-07-10T12:05:38;20.70;96.00
21184;DHT22;18176;49.502;11.754;2022-07-10T12:09:35;20.80;96.10
21184;DHT22;18176;49.502;11.754;2022-07-10T12:13:35;21.70;95.60
21184;DHT22;18176;49.502;11.754;2022-07-10T12:17:32;22.80;93.90
21184;DHT22;18176;49.502;11.754;2022-07-10T12:21:30;23.10;93.00
21184;DHT22;18176;49.502;11.754;2022-07-10T12:25:27;23.30;91.90
21184;DHT22;18176;49.502;11.754;2022-07-10T12:29:28;22.90;90.40
21184;DHT22;18176;49.502;11.754;2022-07-10T12:34:13;22.10;90.60
21184;DHT22;18176;49.502;11.754;2022-07-10T12:39:00;21.40;92.00
21184;DHT22;18176;49.502;11.754;2022-07-10T12:43:41;21.60;91.50
21184;DHT22;18176;49.502;11.754;2022-07-10T12:59:45;23.40;88.70
21184;DHT22;18176;49.502;11.754;2022-07-10T13:09:45;24.20;85.60
21184;DHT22;18176;49.502;11.754;2022-07-10T13:14:11;23.60;85.50
21184;DHT22;18176;49.502;11.754;2022-07-10T13:19:48;23.10;83.70
21184;DHT22;18176;49.502;11.754;2022-07-10T13:24:28;23.00;83.00
21184;DHT22;18176;49.502;11.754;2022-07-10T13:43:39;20.80;89.60
21184;DHT22;18176;49.502;11.754;2022-07-10T13:47:36;22.90;85.30
21184;DHT22;18176;49.502;11.754;2022-07-10T13:51:33;23.40;80.30
21184;DHT22;18176;49.502;11.754;2022-07-10T13:55:32;22.20;84.90
21184;DHT22;18176;49.502;11.754;2022-07-10T13:59:30;21.60;87.50
21184;DHT22;18176;49.502;11.754;2022-07-10T14:03:27;21.10;86.70
21184;DHT22;18176;49.502;11.754;2022-07-10T14:07:24;21.30;87.60
21184;DHT22;18176;49.502;11.754;2022-07-10T14:11:29;22.40;84.20
21184;DHT22;18176;49.502;11.754;2022-07-10T14:15:26;21.30;87.60
21184;DHT22;18176;49.502;11.754;2022-07-10T14:19:23;20.30;90.80
21184;DHT22;18176;49.502;11.754;2022-07-10T14:23:20;19.90;92.30
21184;DHT22;18176;49.502;11.754;2022-07-10T14:27:18;19.60;92.30
21184;DHT22;18176;49.502;11.754;2022-07-10T14:31:15;19.50;92.60
21184;DHT22;18176;49.502;11.754;2022-07-10T14:35:12;19.50;92.90
21184;DHT22;18176;49.502;11.754;2022-07-10T14:39:10;19.50;93.20
21184;DHT22;18176;49.502;11.754;2022-07-10T14:43:08;19.80;93.50
21184;DHT22;18176;49.502;11.754;2022-07-10T14:47:05;21.50;90.80
21184;DHT22;18176;49.502;11.754;2022-07-10T14:51:03;21.70;88.90
21184;DHT22;18176;49.502;11.754;2022-07-10T14:55:00;21.10;90.20
21184;DHT22;18176;49.502;11.754;2022-07-10T14:58:59;20.50;91.30
21184;DHT22;18176;49.502;11.754;2022-07-10T15:03:12;20.30;91.80
21184;DHT22;18176;49.502;11.754;2022-07-10T15:07:09;20.90;90.90
21184;DHT22;18176;49.502;11.754;2022-07-10T15:11:06;22.10;89.70
21184;DHT22;18176;49.502;11.754;2022-07-10T15:15:05;22.10;87.00
21184;DHT22;18176;49.502;11.754;2022-07-10T15:19:06;21.40;88.80
21184;DHT22;18176;49.502;11.754;2022-07-10T15:23:06;21.10;89.20
21184;DHT22;18176;49.502;11.754;2022-07-10T15:27:04;20.80;90.50
21184;DHT22;18176;49.502;11.754;2022-07-10T15:31:01;20.40;91.20
21184;DHT22;18176;49.502;11.754;2022-07-10T15:35:00;21.00;91.60
21184;DHT22;18176;49.502;11.754;2022-07-10T15:38:57;22.00;88.30
21184;DHT22;18176;49.502;11.754;2022-07-10T15:42:58;21.70;88.60
21184;DHT22;18176;49.502;11.754;2022-07-10T15:46:55;21.10;90.60
21184;DHT22;18176;49.502;11.754;2022-07-10T15:50:53;20.60;91.30
21184;DHT22;18176;49.502;11.754;2022-07-10T15:54:52;20.80;91.60
21184;DHT22;18176;49.502;11.754;2022-07-10T15:58:49;20.70;91.30
21184;DHT22;18176;49.502;11.754;2022-07-10T16:02:46;20.20;91.90
21184;DHT22;18176;49.502;11.754;2022-07-10T16:06:43;19.70;92.50
21184;DHT22;18176;49.502;11.754;2022-07-10T16:10:41;19.40;92.80
21184;DHT22;18176;49.502;11.754;2022-07-10T16:14:38;19.30;93.70
21184;DHT22;18176;49.502;11.754;2022-07-10T16:18:35;19.20;93.70
21184;DHT22;18176;49.502;11.754;2022-07-10T16:22:32;19.30;93.50
21184;DHT22;18176;49.502;11.754;2022-07-10T16:26:30;19.70;93.30
21184;DHT22;18176;49.502;11.754;2022-07-10T16:30:30;21.50;90.90
21184;DHT22;18176;49.502;11.754;2022-07-10T16:34:28;21.40;90.70
21184;DHT22;18176;49.502;11.754;2022-07-10T16:38:25;20.60;91.10
21184;DHT22;18176;49.502;11.754;2022-07-10T16:42:22;20.50;91.40
21184;DHT22;18176;49.502;11.754;2022-07-10T16:46:19;20.00;92.00
21184;DHT22;18176;49.502;11.754;2022-07-10T16:50:16;19.70;92.70
21184;DHT22;18176;49.502;11.754;2022-07-10T16:54:13;19.60;93.00
21184;DHT22;18176;49.502;11.754;2022-07-10T16:58:13;19.50;93.30
21184;DHT22;18176;49.502;11.754;2022-07-10T17:02:11;19.40;93.40
21184;DHT22;18176;49.502;11.754;2022-07-10T17:06:08;19.90;93.00
21184;DHT22;18176;49.502;11.754;2022-07-10T17:10:09;21.30;91.90
21184;DHT22;18176;49.502;11.754;2022-07-10T17:14:07;22.90;88.50
21184;DHT22;18176;49.502;11.754;2022-07-10T17:18:05;23.30;85.60
21184;DHT22;18176;49.502;11.754;2022-07-10T17:22:02;23.50;84.70
21184;DHT22;18176;49.502;11.754;2022-07-10T17:25:59;23.50;83.40
21184;DHT22;18176;49.502;11.754;2022-07-10T17:29:56;22.40;87.40
21184;DHT22;18176;49.502;11.754;2022-07-10T17:33:54;22.40;87.00
21184;DHT22;18176;49.502;11.754;2022-07-10T17:37:51;22.10;86.90
21184;DHT22;18176;49.502;11.754;2022-07-10T17:41:48;20.80;90.30
21184;DHT22;18176;49.502;11.754;2022-07-10T17:45:47;21.10;90.60
21184;DHT22;18176;49.502;11.754;2022-07-10T17:49:45;21.80;89.00
21184;DHT22;18176;49.502;11.754;2022-07-10T17:53:42;21.90;88.90
21184;DHT22;18176;49.502;11.754;2022-07-10T17:57:39;21.70;90.00
21184;DHT22;18176;49.502;11.754;2022-07-10T18:01:36;20.90;90.80
21184;DHT22;18176;49.502;11.754;2022-07-10T18:05:34;19.80;92.10
21184;DHT22;18176;49.502;11.754;2022-07-10T18:09:31;19.70;92.90
21184;DHT22;18176;49.502;11.754;2022-07-10T18:13:28;19.60;93.10
21184;DHT22;18176;49.502;11.754;2022-07-10T18:17:25;19.10;94.10
21184;DHT22;18176;49.502;11.754;2022-07-10T18:21:23;19.10;94.20
21184;DHT22;18176;49.502;11.754;2022-07-10T18:25:21;18.90;94.40
21184;DHT22;18176;49.502;11.754;2022-07-10T18:29:21;18.40;95.30
21184;DHT22;18176;49.502;11.754;2022-07-10T18:33:18;18.10;96.00
21184;DHT22;18176;49.502;11.754;2022-07-10T18:37:53;17.80;96.30
21184;DHT22;18176;49.502;11.754;2022-07-10T18:41:50;17.60;96.50
21184;DHT22;18176;49.502;11.754;2022-07-10T18:45:47;17.50;96.70
21184;DHT22;18176;49.502;11.754;2022-07-10T18:49:44;17.30;96.90
21184;DHT22;18176;49.502;11.754;2022-07-10T18:53:41;17.10;97.40
21184;DHT22;18176;49.502;11.754;2022-07-10T18:57:40;16.90;98.00
21184;DHT22;18176;49.502;11.754;2022-07-10T19:01:37;16.70;98.30
21184;DHT22;18176;49.502;11.754;2022-07-10T19:05:35;16.50;98.70
21184;DHT22;18176;49.502;11.754;2022-07-10T19:09:34;16.40;99.10
21184;DHT22;18176;49.502;11.754;2022-07-10T19:13:31;16.30;99.50
21184;DHT22;18176;49.502;11.754;2022-07-10T19:17:28;16.10;99.90
21184;DHT22;18176;49.502;11.754;2022-07-10T19:21:27;15.90;99.90
21184;DHT22;18176;49.502;11.754;2022-07-10T19:25:25;15.70;99.90
21184;DHT22;18176;49.502;11.754;2022-07-10T19:29:24;15.60;99.90
21184;DHT22;18176;49.502;11.754;2022-07-10T19:33:21;15.40;99.90
21184;DHT22;18176;49.502;11.754;2022-07-10T19:37:19;15.30;99.90
21184;DHT22;18176;49.502;11.754;2022-07-10T19:41:16;15.20;99.90
21184;DHT22;18176;49.502;11.754;2022-07-10T19:45:14;15.20;99.90
21184;DHT22;18176;49.502;11.754;2022-07-10T19:49:11;15.10;99.90
21184;DHT22;18176;49.502;11.754;2022-07-10T19:53:09;15.10;99.90
21184;DHT22;18176;49.502;11.754;2022-07-10T19:57:06;15.20;99.90
21184;DHT22;18176;49.502;11.754;2022-07-10T20:01:10;15.30;99.90
21184;DHT22;18176;49.502;11.754;2022-07-10T20:05:08;15.30;99.90
21184;DHT22;18176;49.502;11.754;2022-07-10T20:09:06;15.40;99.90
21184;DHT22;18176;49.502;11.754;2022-07-10T20:13:03;15.50;99.90
21184;DHT22;18176;49.502;11.754;2022-07-10T20:17:00;15.50;99.90
21184;DHT22;18176;49.502;11.754;2022-07-10T20:21:00;15.50;99.90
21184;DHT22;18176;49.502;11.754;2022-07-10T20:24:57;15.60;99.90
21184;DHT22;18176;49.502;11.754;2022-07-10T20:28:55;15.70;99.90
21184;DHT22;18176;49.502;11.754;2022-07-10T20:32:52;15.80;99.90
21184;DHT22;18176;49.502;11.754;2022-07-10T20:36:49;15.70;99.90
21184;DHT22;18176;49.502;11.754;2022-07-10T20:41:04;15.80;99.90
21184;DHT22;18176;49.502;11.754;2022-07-10T20:45:03;15.80;99.90
21184;DHT22;18176;49.502;11.754;2022-07-10T20:49:01;15.80;99.90
21184;DHT22;18176;49.502;11.754;2022-07-10T20:52:58;15.70;99.90
21184;DHT22;18176;49.502;11.754;2022-07-10T20:56:55;15.50;99.90
21184;DHT22;18176;49.502;11.754;2022-07-10T21:00:52;15.40;99.90
21184;DHT22;18176;49.502;11.754;2022-07-10T21:04:49;15.30;99.90
21184;DHT22;18176;49.502;11.754;2022-07-10T21:08:48;15.30;99.90
21184;DHT22;18176;49.502;11.754;2022-07-10T21:12:45;15.30;99.90
21184;DHT22;18176;49.502;11.754;2022-07-10T21:16:42;15.30;99.90
21184;DHT22;18176;49.502;11.754;2022-07-10T21:20:40;15.20;99.90
21184;DHT22;18176;49.502;11.754;2022-07-10T21:24:37;15.20;99.90
21184;DHT22;18176;49.502;11.754;2022-07-10T21:28:34;15.10;99.90
21184;DHT22;18176;49.502;11.754;2022-07-10T21:32:33;15.10;99.90
21184;DHT22;18176;49.502;11.754;2022-07-10T21:36:30;15.20;99.90
21184;DHT22;18176;49.502;11.754;2022-07-10T21:40:28;15.30;99.90
21184;DHT22;18176;49.502;11.754;2022-07-10T21:44:25;15.30;99.90
21184;DHT22;18176;49.502;11.754;2022-07-10T21:48:22;15.30;99.90
21184;DHT22;18176;49.502;11.754;2022-07-10T21:52:19;15.40;99.90
21184;DHT22;18176;49.502;11.754;2022-07-10T21:56:16;15.40;99.90
21184;DHT22;18176;49.502;11.754;2022-07-10T22:00:14;15.40;99.90
21184;DHT22;18176;49.502;11.754;2022-07-10T22:04:11;15.40;99.90
21184;DHT22;18176;49.502;11.754;2022-07-10T22:08:08;15.40;99.90
21184;DHT22;18176;49.502;11.754;2022-07-10T22:12:06;15.30;99.90
21184;DHT22;18176;49.502;11.754;2022-07-10T22:16:05;15.30;99.90
21184;DHT22;18176;49.502;11.754;2022-07-10T22:20:03;15.40;99.90
21184;DHT22;18176;49.502;11.754;2022-07-10T22:24:01;15.30;99.90
21184;DHT22;18176;49.502;11.754;2022-07-10T22:27:58;15.30;99.90
21184;DHT22;18176;49.502;11.754;2022-07-10T22:31:55;15.30;99.90
21184;DHT22;18176;49.502;11.754;2022-07-10T22:35:53;15.30;99.90
21184;DHT22;18176;49.502;11.754;2022-07-10T22:39:50;15.40;99.90
21184;DHT22;18176;49.502;11.754;2022-07-10T22:43:48;15.30;99.90
21184;DHT22;18176;49.502;11.754;2022-07-10T22:47:45;15.30;99.90
21184;DHT22;18176;49.502;11.754;2022-07-10T22:51:42;15.30;99.90
21184;DHT22;18176;49.502;11.754;2022-07-10T22:55:42;15.30;99.90
21184;DHT22;18176;49.502;11.754;2022-07-10T22:59:39;15.20;99.90
21184;DHT22;18176;49.502;11.754;2022-07-10T23:03:37;15.20;99.90
21184;DHT22;18176;49.502;11.754;2022-07-10T23:07:34;15.20;99.90
21184;DHT22;18176;49.502;11.754;2022-07-10T23:11:31;15.20;99.90
21184;DHT22;18176;49.502;11.754;2022-07-10T23:15:35;15.10;99.90
21184;DHT22;18176;49.502;11.754;2022-07-10T23:19:32;15.00;99.90
21184;DHT22;18176;49.502;11.754;2022-07-10T23:23:29;14.90;99.90
21184;DHT22;18176;49.502;11.754;2022-07-10T23:27:27;14.70;99.90
21184;DHT22;18176;49.502;11.754;2022-07-10T23:31:24;14.50;99.90
21184;DHT22;18176;49.502;11.754;2022-07-10T23:35:22;14.40;99.90
21184;DHT22;18176;49.502;11.754;2022-07-10T23:39:24;14.40;99.90
21184;DHT22;18176;49.502;11.754;2022-07-10T23:43:24;14.40;99.90
21184;DHT22;18176;49.502;11.754;2022-07-10T23:47:21;14.40;99.90
21184;DHT22;18176;49.502;11.754;2022-07-10T23:51:18;14.30;99.90
21184;DHT22;18176;49.502;11.754;2022-07-10T23:55:15;14.30;99.90
21184;DHT22;18176;49.502;11.754;2022-07-10T23:59:12;14.20;99.90
